createdAt,value
2019-03-15T00:00:37.588Z,69.13
2019-03-15T00:03:06.814Z,69.27
2019-03-15T00:05:36.171Z,68.81
2019-03-15T00:08:06.417Z,68.62
2019-03-15T00:10:35.708Z,68.40
2019-03-15T00:13:05.007Z,69.05
2019-03-15T00:15:34.241Z,69.48
2019-03-15T00:18:03.812Z,70.01
2019-03-15T00:20:33.132Z,69.97
2019-03-15T00:23:02.378Z,70.36
2019-03-15T00:25:31.697Z,70.37
2019-03-15T00:28:00.924Z,70.26
2019-03-15T00:30:30.249Z,70.26
2019-03-15T00:32:59.551Z,70.39
2019-03-15T00:35:28.899Z,70.28
2019-03-15T00:37:58.144Z,70.28
2019-03-15T00:40:27.387Z,70.12
2019-03-15T00:42:56.878Z,69.92
2019-03-15T00:45:26.101Z,69.80
2019-03-15T00:47:55.395Z,69.83
2019-03-15T00:50:24.688Z,69.23
2019-03-15T00:52:53.963Z,69.01
2019-03-15T00:55:23.624Z,68.84
2019-03-15T00:57:53.737Z,68.27
2019-03-15T01:00:23.069Z,67.87
2019-03-15T01:02:52.370Z,67.63
2019-03-15T01:05:21.625Z,67.57
2019-03-15T01:07:51.307Z,67.17
2019-03-15T01:10:20.976Z,66.96
2019-03-15T01:12:51.077Z,66.58
2019-03-15T01:15:20.563Z,66.28
2019-03-15T01:17:49.933Z,66.11
2019-03-15T01:20:19.591Z,66.13
2019-03-15T01:22:48.964Z,66.48
2019-03-15T01:25:18.695Z,66.58
2019-03-15T01:27:47.923Z,66.75
2019-03-15T01:30:17.306Z,66.58
2019-03-15T01:32:46.595Z,66.53
2019-03-15T01:35:15.951Z,66.43
2019-03-15T01:37:45.317Z,66.41
2019-03-15T01:40:14.985Z,66.50
2019-03-15T01:42:44.264Z,66.33
2019-03-15T01:45:13.673Z,66.12
2019-03-15T01:47:43.578Z,65.83
2019-03-15T01:50:12.902Z,65.48
2019-03-15T01:52:42.326Z,65.23
2019-03-15T01:55:11.705Z,65.25
2019-03-15T01:57:41.077Z,65.33
2019-03-15T02:00:11.456Z,65.05
2019-03-15T02:02:40.711Z,64.59
2019-03-15T02:05:10.553Z,64.57
2019-03-15T02:07:39.964Z,64.26
2019-03-15T02:10:09.319Z,63.99
2019-03-15T02:12:39.128Z,63.60
2019-03-15T02:15:09.296Z,63.47
2019-03-15T02:17:38.611Z,63.41
2019-03-15T02:20:08.562Z,62.79
2019-03-15T02:22:40.406Z,62.86
2019-03-15T02:25:10.134Z,62.51
2019-03-15T02:27:39.919Z,62.60
2019-03-15T02:30:10.371Z,62.25
2019-03-15T02:32:40.232Z,62.52
2019-03-15T02:35:09.894Z,62.28
2019-03-15T02:37:39.444Z,62.34
2019-03-15T02:40:08.797Z,62.11
2019-03-15T02:42:38.428Z,62.29
2019-03-15T02:45:08.432Z,62.52
2019-03-15T02:47:38.062Z,62.91
2019-03-15T02:50:07.515Z,63.35
2019-03-15T02:52:36.973Z,63.67
2019-03-15T02:55:06.904Z,64.00
2019-03-15T02:57:36.071Z,64.60
2019-03-15T03:00:05.804Z,64.88
2019-03-15T03:02:35.472Z,65.23
2019-03-15T03:05:04.943Z,65.56
2019-03-15T03:07:34.334Z,65.75
2019-03-15T03:10:04.105Z,65.68
2019-03-15T03:12:33.399Z,65.79
2019-03-15T03:15:02.728Z,65.73
2019-03-15T03:17:32.147Z,65.61
2019-03-15T03:20:01.462Z,65.49
2019-03-15T03:22:30.933Z,65.57
2019-03-15T03:25:00.379Z,65.42
2019-03-15T03:27:29.670Z,65.27
2019-03-15T03:29:58.936Z,65.23
2019-03-15T03:32:28.293Z,65.43
2019-03-15T03:34:57.743Z,65.58
2019-03-15T03:37:27.019Z,65.66
2019-03-15T03:39:56.316Z,65.70
2019-03-15T03:42:25.660Z,66.05
2019-03-15T03:44:54.969Z,66.02
2019-03-15T03:47:24.303Z,66.07
2019-03-15T03:49:53.770Z,66.20
2019-03-15T03:52:23.015Z,66.28
2019-03-15T03:54:52.327Z,66.46
2019-03-15T03:57:21.690Z,66.53
2019-03-15T03:59:51.314Z,66.42
2019-03-15T04:02:20.703Z,66.45
2019-03-15T04:04:50.137Z,66.60
2019-03-15T04:07:19.510Z,66.78
2019-03-15T04:09:48.818Z,66.90
2019-03-15T04:12:18.663Z,66.97
2019-03-15T04:14:48.300Z,66.90
2019-03-15T04:17:17.657Z,66.87
2019-03-15T04:19:46.969Z,67.07
2019-03-15T04:22:16.177Z,66.93
2019-03-15T04:24:45.933Z,66.65
2019-03-15T04:27:15.174Z,66.50
2019-03-15T04:29:44.568Z,66.65
2019-03-15T04:32:13.874Z,66.57
2019-03-15T04:34:43.236Z,66.73
2019-03-15T04:37:12.607Z,67.15
2019-03-15T04:39:42.367Z,67.24
2019-03-15T04:42:11.685Z,67.21
2019-03-15T04:44:41.350Z,67.35
2019-03-15T04:47:10.684Z,67.47
2019-03-15T04:49:40.023Z,67.46
2019-03-15T04:52:09.370Z,67.48
2019-03-15T04:54:39.262Z,67.39
2019-03-15T04:57:08.601Z,67.26
2019-03-15T04:59:38.211Z,67.35
2019-03-15T05:02:09.349Z,67.32
2019-03-15T05:04:38.575Z,67.37
2019-03-15T05:07:08.053Z,67.64
2019-03-15T05:09:37.538Z,67.51
2019-03-15T05:12:07.208Z,67.49
2019-03-15T05:14:37.872Z,67.28
2019-03-15T05:17:07.667Z,67.12
2019-03-15T05:19:37.111Z,67.15
2019-03-15T05:22:06.477Z,66.92
2019-03-15T05:24:35.848Z,67.05
2019-03-15T05:27:05.514Z,67.04
2019-03-15T05:29:34.887Z,67.26
2019-03-15T05:32:04.212Z,67.10
2019-03-15T05:34:33.451Z,66.99
2019-03-15T05:37:03.309Z,67.01
2019-03-15T05:39:32.608Z,66.94
2019-03-15T05:42:02.001Z,66.86
2019-03-15T05:44:31.434Z,66.76
2019-03-15T05:47:01.662Z,67.01
2019-03-15T05:49:31.430Z,67.05
2019-03-15T05:52:00.788Z,67.19
2019-03-15T05:54:30.189Z,67.29
2019-03-15T05:56:59.599Z,67.42
2019-03-15T05:59:29.533Z,67.58
2019-03-15T06:01:58.913Z,67.50
2019-03-15T06:04:28.884Z,67.65
2019-03-15T06:06:58.510Z,67.41
2019-03-15T06:09:27.840Z,67.09
2019-03-15T06:11:57.378Z,65.60
2019-03-15T06:14:27.752Z,63.97
2019-03-15T06:16:57.110Z,63.00
2019-03-15T06:19:26.330Z,62.28
2019-03-15T06:21:57.546Z,61.17
2019-03-15T06:24:27.180Z,59.46
2019-03-15T06:26:56.484Z,60.18
2019-03-15T06:29:26.003Z,61.01
2019-03-15T06:31:55.264Z,61.95
2019-03-15T06:34:24.917Z,62.82
2019-03-15T06:36:54.228Z,63.81
2019-03-15T06:39:23.526Z,64.72
2019-03-15T06:41:53.710Z,65.13
2019-03-15T06:44:23.127Z,64.53
2019-03-15T06:46:52.470Z,62.93
2019-03-15T06:49:21.838Z,62.32
2019-03-15T06:51:51.059Z,61.46
2019-03-15T06:54:20.479Z,59.26
2019-03-15T06:56:49.787Z,57.83
2019-03-15T06:59:19.344Z,58.40
2019-03-15T07:01:48.756Z,57.35
2019-03-15T07:04:18.044Z,58.22
2019-03-15T07:06:47.623Z,58.18
2019-03-15T07:09:17.010Z,59.05
2019-03-15T07:11:46.560Z,57.38
2019-03-15T07:14:16.068Z,55.68
2019-03-15T07:16:45.445Z,56.16
2019-03-15T07:19:25.633Z,57.14
2019-03-15T07:21:47.037Z,57.78
2019-03-15T07:24:25.079Z,58.33
2019-03-15T07:26:50.838Z,58.17
2019-03-15T07:29:20.361Z,58.20
2019-03-15T07:31:49.761Z,58.13
2019-03-15T07:34:19.314Z,58.81
2019-03-15T07:36:48.701Z,59.02
2019-03-15T07:39:18.683Z,59.14
2019-03-15T07:41:48.492Z,58.75
2019-03-15T07:44:17.855Z,58.42
2019-03-15T07:46:47.302Z,58.79
2019-03-15T07:49:18.059Z,58.70
2019-03-15T07:51:50.221Z,59.16
2019-03-15T07:54:19.444Z,58.97
2019-03-15T07:56:49.546Z,59.61
2019-03-15T07:59:18.796Z,60.17
2019-03-15T08:01:48.212Z,60.35
2019-03-15T08:04:20.714Z,61.24
2019-03-15T08:06:50.327Z,61.10
2019-03-15T08:09:19.754Z,61.46
2019-03-15T08:11:49.101Z,61.21
2019-03-15T08:14:19.048Z,60.58
2019-03-15T08:16:49.011Z,60.55
2019-03-15T08:19:18.313Z,60.42
2019-03-15T08:21:49.322Z,60.83
2019-03-15T08:24:19.161Z,61.02
2019-03-15T08:26:49.118Z,60.69
2019-03-15T08:29:18.665Z,60.51
2019-03-15T08:31:47.942Z,60.72
2019-03-15T08:34:17.295Z,61.08
2019-03-15T08:36:46.555Z,61.15
2019-03-15T08:39:16.139Z,60.87
2019-03-15T08:41:45.399Z,60.65
2019-03-15T08:44:17.198Z,60.51
2019-03-15T08:46:51.352Z,60.28
2019-03-15T08:49:20.762Z,60.45
2019-03-15T08:52:03.121Z,60.17
2019-03-15T08:54:23.241Z,59.89
2019-03-15T08:56:52.944Z,59.76
2019-03-15T08:59:22.241Z,59.62
2019-03-15T09:01:52.976Z,60.07
2019-03-15T09:04:27.786Z,59.58
2019-03-15T09:07:00.497Z,59.09
2019-03-15T09:09:29.851Z,58.91
2019-03-15T09:11:59.214Z,58.52
2019-03-15T09:14:28.468Z,58.38
2019-03-15T09:16:58.083Z,57.97
2019-03-15T09:19:27.591Z,58.06
2019-03-15T09:22:00.324Z,57.76
2019-03-15T09:24:27.894Z,56.75
2019-03-15T09:26:57.217Z,56.37
2019-03-15T09:29:28.436Z,56.08
2019-03-15T09:32:05.481Z,56.30
2019-03-15T09:34:28.991Z,55.99
2019-03-15T09:36:58.284Z,55.24
2019-03-15T09:39:27.554Z,55.65
2019-03-15T09:41:56.833Z,55.32
2019-03-15T09:44:28.543Z,55.62
2019-03-15T09:46:57.821Z,55.20
2019-03-15T09:49:27.159Z,55.00
2019-03-15T09:51:56.734Z,54.57
2019-03-15T09:54:26.481Z,53.55
2019-03-15T09:56:55.724Z,53.88
2019-03-15T09:59:25.018Z,53.54
2019-03-15T10:01:56.754Z,53.50
2019-03-15T10:04:26.321Z,53.59
2019-03-15T10:06:57.803Z,53.08
2019-03-15T10:09:30.423Z,52.41
2019-03-15T10:11:59.920Z,52.29
2019-03-15T10:14:29.554Z,52.00
2019-03-15T10:16:58.986Z,51.78
2019-03-15T10:19:29.752Z,51.22
2019-03-15T10:22:01.971Z,51.18
2019-03-15T10:24:31.610Z,51.84
2019-03-15T10:27:00.899Z,53.55
2019-03-15T10:29:30.289Z,54.96
2019-03-15T10:32:01.099Z,57.66
2019-03-15T10:34:35.683Z,58.74
2019-03-15T10:37:06.193Z,60.37
2019-03-15T10:39:35.439Z,60.64
2019-03-15T10:42:04.805Z,60.44
2019-03-15T10:44:35.425Z,60.53
2019-03-15T10:47:07.263Z,59.97
2019-03-15T10:49:36.601Z,59.98
2019-03-15T10:52:05.846Z,59.63
2019-03-15T10:54:35.137Z,59.34
2019-03-15T10:57:04.426Z,58.83
2019-03-15T10:59:33.905Z,59.15
2019-03-15T11:02:03.363Z,58.67
2019-03-15T11:04:32.605Z,58.76
2019-03-15T11:07:01.896Z,59.25
2019-03-15T11:09:34.740Z,58.76
2019-03-15T11:12:04.047Z,59.02
2019-03-15T11:14:33.639Z,58.45
2019-03-15T11:17:02.939Z,58.59
2019-03-15T11:19:32.202Z,57.92
2019-03-15T11:22:11.654Z,58.87
2019-03-15T11:24:43.563Z,58.92
2019-03-15T11:27:11.962Z,58.88
2019-03-15T11:29:41.220Z,59.53
2019-03-15T11:32:17.168Z,59.37
2019-03-15T11:34:47.698Z,59.25
2019-03-15T11:37:17.308Z,59.40
2019-03-15T11:39:46.630Z,59.38
2019-03-15T11:42:15.923Z,59.50
2019-03-15T11:44:45.167Z,58.95
2019-03-15T11:47:14.514Z,59.27
2019-03-15T11:49:43.790Z,59.37
2019-03-15T11:52:13.020Z,59.06
2019-03-15T11:54:42.421Z,59.61
2019-03-15T11:57:11.675Z,60.25
2019-03-15T11:59:40.959Z,60.16
2019-03-15T12:02:10.823Z,60.26
2019-03-15T12:04:40.416Z,60.90
2019-03-15T12:07:10.520Z,60.89
2019-03-15T12:09:41.122Z,61.78
2019-03-15T12:12:10.529Z,62.61
2019-03-15T12:14:41.272Z,63.01
2019-03-15T12:17:11.427Z,63.78
2019-03-15T12:19:40.681Z,64.15
2019-03-15T12:22:09.966Z,64.01
2019-03-15T12:24:39.202Z,64.60
2019-03-15T12:27:08.597Z,65.58
2019-03-15T12:29:37.834Z,65.92
2019-03-15T12:32:09.399Z,65.67
2019-03-15T12:34:38.703Z,66.36
2019-03-15T12:37:07.988Z,66.25
2019-03-15T12:39:37.257Z,65.54
2019-03-15T12:42:06.599Z,65.92
2019-03-15T12:44:35.963Z,65.67
2019-03-15T12:47:06.310Z,66.06
2019-03-15T12:49:35.683Z,67.31
2019-03-15T12:52:05.555Z,67.71
2019-03-15T12:54:34.821Z,68.31
2019-03-15T12:57:04.448Z,68.88
2019-03-15T12:59:33.823Z,70.09
2019-03-15T13:02:03.815Z,70.22
2019-03-15T13:04:33.155Z,70.46
2019-03-15T13:07:02.414Z,70.52
2019-03-15T13:09:31.738Z,70.83
2019-03-15T13:12:01.076Z,71.37
2019-03-15T13:14:30.347Z,70.94
2019-03-15T13:16:59.666Z,70.79
2019-03-15T13:19:29.397Z,70.87
2019-03-15T13:22:00.001Z,70.89
2019-03-15T13:24:29.313Z,70.77
2019-03-15T13:27:07.697Z,70.54
2019-03-15T13:29:34.948Z,70.99
2019-03-15T13:32:07.895Z,71.32
2019-03-15T13:34:37.296Z,70.75
2019-03-15T13:37:06.608Z,70.72
2019-03-15T13:39:37.542Z,69.57
2019-03-15T13:42:07.222Z,69.59
2019-03-15T13:44:36.709Z,68.92
2019-03-15T13:47:06.103Z,68.33
2019-03-15T13:49:35.479Z,68.10
2019-03-15T13:52:07.844Z,68.12
2019-03-15T13:54:38.081Z,67.89
2019-03-15T13:57:20.292Z,67.57
2019-03-15T13:59:38.505Z,67.78
2019-03-15T14:02:08.160Z,67.79
2019-03-15T14:04:38.008Z,67.87
2019-03-15T14:07:08.251Z,67.72
2019-03-15T14:09:37.613Z,67.53
2019-03-15T14:12:07.054Z,67.87
2019-03-15T14:14:36.426Z,67.84
2019-03-15T14:17:05.765Z,67.51
2019-03-15T14:19:35.050Z,67.91
2019-03-15T14:22:06.172Z,67.85
2019-03-15T14:24:35.652Z,67.65
2019-03-15T14:27:05.331Z,67.82
2019-03-15T14:29:34.922Z,67.90
2019-03-15T14:32:06.680Z,67.86
2019-03-15T14:34:35.364Z,68.13
2019-03-15T14:37:04.793Z,68.57
2019-03-15T14:39:34.128Z,69.44
2019-03-15T14:42:03.913Z,70.12
2019-03-15T14:44:34.040Z,70.53
2019-03-15T14:47:03.758Z,70.34
2019-03-15T14:49:33.139Z,70.30
2019-03-15T14:52:02.498Z,69.89
2019-03-15T14:54:31.850Z,69.95
2019-03-15T14:57:01.188Z,69.89
2019-03-15T14:59:31.019Z,69.52
2019-03-15T15:02:01.491Z,69.44
2019-03-15T15:04:31.184Z,69.32
2019-03-15T15:07:00.607Z,69.33
2019-03-15T15:09:30.271Z,69.27
2019-03-15T15:11:59.601Z,69.22
2019-03-15T15:14:29.274Z,69.60
2019-03-15T15:16:58.579Z,70.12
2019-03-15T15:19:27.850Z,70.37
2019-03-15T15:21:57.155Z,70.54
2019-03-15T15:24:27.238Z,70.75
2019-03-15T15:26:56.712Z,70.73
2019-03-15T15:29:26.037Z,70.62
2019-03-15T15:31:55.333Z,70.50
2019-03-15T15:34:24.621Z,70.35
2019-03-15T15:36:53.956Z,70.33
2019-03-15T15:39:24.070Z,69.96
2019-03-15T15:41:53.611Z,70.24
2019-03-15T15:44:23.001Z,70.25
2019-03-15T15:46:52.302Z,70.13
2019-03-15T15:49:21.700Z,70.01
2019-03-15T15:51:50.984Z,70.18
2019-03-15T15:54:20.311Z,70.60
2019-03-15T15:56:50.974Z,70.71
2019-03-15T15:59:21.342Z,70.72
2019-03-15T16:01:50.660Z,70.71
2019-03-15T16:04:20.290Z,70.92
2019-03-15T16:06:49.967Z,70.85
2019-03-15T16:09:20.695Z,70.50
2019-03-15T16:11:49.976Z,70.64
2019-03-15T16:14:19.253Z,70.52
2019-03-15T16:16:49.069Z,70.16
2019-03-15T16:19:18.947Z,69.89
2019-03-15T16:21:48.246Z,69.58
2019-03-15T16:24:17.667Z,69.08
2019-03-15T16:26:46.924Z,68.69
2019-03-15T16:29:16.194Z,68.24
2019-03-15T16:31:45.463Z,67.83
2019-03-15T16:34:14.712Z,67.75
2019-03-15T16:36:44.098Z,67.68
2019-03-15T16:39:13.392Z,67.50
2019-03-15T16:41:42.754Z,67.60
2019-03-15T16:44:12.022Z,67.78
2019-03-15T16:46:41.357Z,67.81
2019-03-15T16:49:10.790Z,67.68
2019-03-15T16:51:40.080Z,67.70
2019-03-15T16:54:09.362Z,67.62
2019-03-15T16:56:38.898Z,67.77
2019-03-15T16:59:09.696Z,67.85
2019-03-15T17:01:39.226Z,67.86
2019-03-15T17:04:08.466Z,68.22
2019-03-15T17:06:37.840Z,68.83
2019-03-15T17:09:08.063Z,68.69
2019-03-15T17:11:37.380Z,68.74
2019-03-15T17:14:06.704Z,69.34
2019-03-15T17:16:36.052Z,69.31
2019-03-15T17:19:05.295Z,69.36
2019-03-15T17:21:34.616Z,69.06
2019-03-15T17:24:03.941Z,69.57
2019-03-15T17:26:33.550Z,69.61
2019-03-15T17:29:02.845Z,69.85
2019-03-15T17:31:33.560Z,70.46
2019-03-15T17:34:02.953Z,71.69
2019-03-15T17:36:32.239Z,72.85
2019-03-15T17:39:01.910Z,73.40
2019-03-15T17:41:31.253Z,74.84
2019-03-15T17:44:00.836Z,75.07
2019-03-15T17:46:30.150Z,77.64
2019-03-15T17:48:59.669Z,79.40
2019-03-15T17:51:31.822Z,80.32
2019-03-15T17:54:01.230Z,81.54
2019-03-15T17:56:30.484Z,82.16
2019-03-15T17:59:11.889Z,82.52
2019-03-15T18:01:31.016Z,82.48
2019-03-15T18:04:00.419Z,82.61
2019-03-15T18:06:32.650Z,82.88
2019-03-15T18:09:02.884Z,83.50
2019-03-15T18:11:32.181Z,83.64
2019-03-15T18:14:01.520Z,83.55
2019-03-15T18:16:30.822Z,83.13
2019-03-15T18:19:00.179Z,83.12
2019-03-15T18:21:31.987Z,83.31
2019-03-15T18:24:01.469Z,83.18
2019-03-15T18:26:30.903Z,82.74
2019-03-15T18:29:00.155Z,82.90
2019-03-15T18:31:29.750Z,82.75
2019-03-15T18:33:59.124Z,82.77
2019-03-15T18:36:31.019Z,82.61
2019-03-15T18:39:02.186Z,82.31
2019-03-15T18:41:32.171Z,82.36
2019-03-15T18:44:01.466Z,82.01
2019-03-15T18:46:33.114Z,81.90
2019-03-15T18:49:02.409Z,81.91
2019-03-15T18:51:33.351Z,81.43
2019-03-15T18:54:03.067Z,81.44
2019-03-15T18:56:32.404Z,81.14
2019-03-15T18:59:01.797Z,80.88
2019-03-15T19:01:31.788Z,80.43
2019-03-15T19:04:01.096Z,79.57
2019-03-15T19:06:33.240Z,79.50
2019-03-15T19:09:02.500Z,79.02
2019-03-15T19:11:31.873Z,77.48
2019-03-15T19:14:01.191Z,76.99
2019-03-15T19:16:30.866Z,77.00
2019-03-15T19:19:00.495Z,76.01
2019-03-15T19:24:58.904Z,71.46
2019-03-15T19:27:31.457Z,70.88
2019-03-15T19:30:00.742Z,71.94
2019-03-15T19:32:33.474Z,71.68
2019-03-15T19:35:02.188Z,70.66
2019-03-15T19:37:31.509Z,70.83
2019-03-15T19:40:00.853Z,70.45
2019-03-15T19:42:30.121Z,70.10
2019-03-15T19:44:59.558Z,70.29
2019-03-15T19:47:28.969Z,70.05
2019-03-15T19:49:58.550Z,70.19
2019-03-15T19:52:27.977Z,70.41
2019-03-15T19:55:00.649Z,71.17
2019-03-15T19:57:28.643Z,71.79
2019-03-15T20:00:07.462Z,71.65
2019-03-15T20:02:31.347Z,71.91
2019-03-15T20:05:01.398Z,72.08
2019-03-15T20:07:31.231Z,71.74
2019-03-15T20:10:01.504Z,71.98
2019-03-15T20:12:32.745Z,72.17
2019-03-15T20:15:02.192Z,72.46
2019-03-15T20:17:31.583Z,72.90
2019-03-15T20:20:01.825Z,72.88
2019-03-15T20:22:31.258Z,73.22
2019-03-15T20:25:02.498Z,72.57
2019-03-15T20:27:32.281Z,72.13
2019-03-15T20:30:01.668Z,70.26
2019-03-15T20:32:31.057Z,69.00
2019-03-15T20:35:00.452Z,66.23
2019-03-15T20:37:29.815Z,64.85
2019-03-15T20:39:59.176Z,64.21
2019-03-15T20:42:28.438Z,64.88
2019-03-15T20:44:57.707Z,64.44
2019-03-15T20:47:28.066Z,62.48
2019-03-15T20:49:58.335Z,61.35
2019-03-15T20:52:27.981Z,61.74
2019-03-15T20:54:59.799Z,62.33
2019-03-15T20:57:29.083Z,61.81
2019-03-15T20:59:58.414Z,62.87
2019-03-15T21:02:36.334Z,62.13
2019-03-15T21:05:08.191Z,60.27
2019-03-15T21:07:38.827Z,59.74
2019-03-15T21:10:10.918Z,59.21
2019-03-15T21:12:41.645Z,57.96
2019-03-15T21:15:11.715Z,58.71
2019-03-15T21:17:42.198Z,59.44
2019-03-15T21:20:12.371Z,59.27
2019-03-15T21:22:41.904Z,59.96
2019-03-15T21:25:11.972Z,59.52
2019-03-15T21:27:53.025Z,60.03
2019-03-15T21:30:14.925Z,59.34
2019-03-15T21:32:44.328Z,59.37
2019-03-15T21:35:14.121Z,58.55
2019-03-15T21:37:43.879Z,56.35
2019-03-15T21:40:14.364Z,54.78
2019-03-15T21:42:44.519Z,54.65
2019-03-15T21:45:19.302Z,53.04
2019-03-15T21:47:49.132Z,51.12
2019-03-15T21:50:18.671Z,50.59
2019-03-15T21:52:49.279Z,51.37
2019-03-15T21:55:18.865Z,51.17
2019-03-15T21:57:50.481Z,51.60
2019-03-15T22:00:20.010Z,50.94
2019-03-15T22:02:50.528Z,50.92
2019-03-15T22:05:20.032Z,51.84
2019-03-15T22:07:51.067Z,51.74
2019-03-15T22:10:20.821Z,52.65
2019-03-15T22:12:51.509Z,52.60
2019-03-15T22:15:21.739Z,53.56
2019-03-15T22:17:51.284Z,53.89
2019-03-15T22:20:22.179Z,52.60
2019-03-15T22:22:51.911Z,52.60
2019-03-15T22:25:22.066Z,52.86
2019-03-15T22:27:53.258Z,53.62
2019-03-15T22:30:22.733Z,53.13
2019-03-15T22:32:52.301Z,52.86
2019-03-15T22:35:21.747Z,53.45
2019-03-15T22:37:52.758Z,53.43
2019-03-15T22:40:23.890Z,54.08
2019-03-15T22:42:54.184Z,53.99
2019-03-15T22:45:23.668Z,54.25
2019-03-15T22:47:53.578Z,54.77
2019-03-15T22:50:23.959Z,54.10
2019-03-15T22:52:53.500Z,54.08
2019-03-15T22:55:22.939Z,53.75
2019-03-15T22:57:59.841Z,53.74
2019-03-15T23:00:30.606Z,53.61
2019-03-15T23:03:00.418Z,53.54
2019-03-15T23:05:30.868Z,53.52
2019-03-15T23:08:01.364Z,53.46
2019-03-15T23:10:31.771Z,53.01
2019-03-15T23:13:02.245Z,54.02
2019-03-15T23:15:32.004Z,54.39
2019-03-15T23:18:04.932Z,54.77
2019-03-15T23:20:37.606Z,54.85
2019-03-15T23:23:07.068Z,55.24
2019-03-15T23:25:40.009Z,55.67
2019-03-15T23:28:09.620Z,56.33
2019-03-15T23:30:39.138Z,56.87
2019-03-15T23:33:08.939Z,57.59
2019-03-15T23:35:53.050Z,58.04
2019-03-15T23:38:09.481Z,58.14
2019-03-15T23:40:44.343Z,58.35
2019-03-15T23:43:15.053Z,58.66
2019-03-15T23:45:45.140Z,58.85
2019-03-15T23:48:14.731Z,58.81
2019-03-15T23:50:44.327Z,58.71
2019-03-15T23:53:18.059Z,58.58
2019-03-15T23:55:50.413Z,58.79
2019-03-15T23:58:24.696Z,58.92
